x

South Brooks (46132) Wave Buoy

4:00 - Mon 26th Jan 2015 All times are PST. -8 hours from GMT.

  • Sig Wave height 10.2ft
  • Peak Period 11s
  • Wind
    18mph, 22mph gusts
  • Sea Temp 51°f
  • Aire Temp 51°f
  • Sea Pressure 1009.1mb
  • South Brooks
  • South Brooks

More Historic Weather Station data

Upgrade to MSW Pro to gain access to the past 30 days of data for over 8000 Wavebouys and Weather Stations around the globe.

Join Pro

Comparision Forecast

View Surf forecast
   
lun 01/26 4:00 10ft 11s 18 22 mph 1009.1mb 51f 51f
3:00 10ft 11s 18 25 mph 1010.1mb 51f 51f
2:00 10ft 12s 13 18 mph 1011.4mb 51f 51f
1:00 11ft 10s 16 20 mph 1011.6mb 51f 51f
12:00 10ft 12s 16 20 mph 1012.3mb 51f 52f
dom 01/25 11:00 10.5ft 12s 16 18 mph 1012.4mb 51f 51f
10:00 10ft 11s 18 22 mph 1012.7mb 51f 51f
9:00 11ft 11s 20 25 mph 1013mb 51f 51f
8:00 10.5ft 14s 20 25 mph 1013.6mb 51f 51f
7:00 11ft 11s 25 29 mph 1013.6mb 51f 51f
6:00 10.5ft 12s 29 38 mph 1013.1mb 51f 51f
5:00 11.5ft 12s 22 29 mph 1014.1mb 51f 50f
4:00 10.5ft 13s 18 22 mph 1015.3mb 51f 51f
3:00 12ft 12s 18 22 mph 1016.2mb 51f 51f
2:00 12ft 12s 20 25 mph 1016.1mb 51f 50f
1:00 12ft 12s 22 29 mph 1016.4mb 51f 51f
12:00 12.5ft 12s 22 29 mph 1017mb 51f 51f
11:00 12.5ft 12s 22 29 mph 1017.3mb 51f 51f
10:00 13ft 13s 22 27 mph 1017mb 51f 51f
9:00 13.5ft 12s 22 27 mph 1016.6mb 51f 51f
8:00 12ft 14s 22 27 mph 1015.9mb 51f 51f
7:00 12.5ft 11s 22 25 mph 1015.8mb 51f 51f
6:00 10.5ft 12s 20 22 mph 1015.7mb 51f 51f
5:00 11.5ft 11s 18 20 mph 1016mb 51f 51f
4:00 12ft 10s 16 18 mph 1016.3mb 51f 51f
3:00 11.5ft 13s 13 16 mph 1017.2mb 51f 51f
2:00 11ft 13s 13 16 mph 1017.2mb 51f 51f
1:00 12.5ft 13s 16 18 mph 1016.9mb 51f 51f
12:00 12ft 10s 18 22 mph 1016.7mb 51f 52f
sáb 01/24 11:00 13ft 12s 20 27 mph 1017.2mb 51f 52f
10:00 11.5ft 14s 22 27 mph 1016.9mb 51f 52f
9:00 12.5ft 12s 22 27 mph 1016.5mb 51f 52f
8:00 13ft 12s 25 31 mph 1016.2mb 51f 52f
7:00 11ft 14s 25 31 mph 1015.6mb 51f 52f
6:00 11.5ft 11s 25 31 mph 1015.9mb 51f 52f
5:00 12ft 13s 25 31 mph 1015.5mb 51f 52f
4:00 11ft 14s 25 29 mph 1015.7mb 51f 52f
3:00 12ft 13s 25 29 mph 1016mb 51f 52f
2:00 11ft 14s 22 27 mph 1016.3mb 50f 52f
1:00 12ft 14s 22 27 mph 1017mb 50f 51f
12:00 11ft 14s 22 25 mph 1017.8mb 50f 51f
11:00 12ft 14s 22 27 mph 1018.2mb 50f 52f
10:00 11.5ft 14s 20 25 mph 1018.4mb 50f 51f
9:00 11ft 14s 22 27 mph 1018.2mb 50f 51f
8:00 12ft 15s 20 25 mph 1018.6mb 51f 51f
7:00 11ft 14s 22 27 mph 1018.7mb 51f 51f
6:00 12ft 14s 20 25 mph 1019.6mb 51f 51f
5:00 11.5ft 12s 18 22 mph 1020.1mb 50f 50f
4:00 12.5ft 13s 16 20 mph 1020.7mb 50f 50f
3:00 12ft 12s 13 18 mph 1021.3mb 50f 50f
2:00 12.5ft 14s 9 13 mph 1021.9mb 51f 50f
1:00 12.5ft 14s 7 9 mph 1022.6mb 51f 49f
12:00 13ft 14s 4 9 mph 1022.3mb 51f 49f
vie 01/23 11:00 11ft 14s 4 7 mph 1022.1mb 51f 50f
10:00 12ft 14s 4 7 mph 1021.8mb 51f 50f
9:00 12ft 16s 2 4 mph 1020.9mb 51f 51f
8:00 12ft 15s 2 4 mph 1019.8mb 51f 51f
7:00 12ft 16s 7 9 mph 1019.2mb 51f 51f
6:00 13ft 17s 7 11 mph 1018.4mb 51f 51f
5:00 12.5ft 16s 11 16 mph 1017.8mb 51f 51f
4:00 13.5ft 15s 9 13 mph 1016.9mb 51f 52f
3:00 12ft 17s 13 16 mph 1016.4mb 51f 52f
2:00 12ft 12s 16 18 mph 1016.5mb 51f 52f
1:00 12.5ft 17s 16 18 mph 1016.6mb 51f 52f
12:00 12ft 17s 13 18 mph 1016.8mb 51f 52f
11:00 12ft 17s 16 20 mph 1016.7mb 51f 52f
10:00 12ft 17s 18 22 mph 1016.7mb 51f 53f
9:00 11.5ft 17s 20 22 mph 1016mb 51f 53f
8:00 12.5ft 18s 18 22 mph 1015.6mb 51f 52f
7:00 11ft 18s 22 29 mph 1015.4mb 51f 52f
6:00 11.5ft 18s 27 34 mph 1015.1mb 51f 51f
5:00 12ft 20s 29 36 mph 1015.6mb 51f 51f
4:00 12ft 18s 29 34 mph 1016.7mb 51f 51f
3:00 12ft 11s 22 29 mph 1019mb 51f 51f
2:00 12ft 11s 22 27 mph 1019.8mb 51f 51f
1:00 12.5ft 12s 25 29 mph 1018.5mb 51f 51f
12:00 12.5ft 12s 20 25 mph 1019.5mb 51f 51f
jue 01/22 11:00 12ft 12s 18 22 mph 1020.3mb 51f 51f
10:00 12ft 12s 16 18 mph 1020.7mb 51f 52f
9:00 12ft 8s 18 22 mph 1019.7mb 51f 52f
8:00 12ft 8s 18 22 mph 1018.9mb 51f 51f
7:00 12ft 12s 18 22 mph 1019.5mb 51f 52f
6:00 13ft 8s 20 27 mph 1018.6mb 51f 52f
5:00 13ft 8s 25 31 mph 1017.5mb 51f 52f
4:00 14ft 8s 29 36 mph 1016.5mb 51f 50f
3:00  -   -  34
mph
1016mb - 50f